Pigeon Cove, Massachusetts
Current Conditions -  °F | °C
As of 9:27 AM on Monday 26 Jan 2015 (Local Time) from KBVY Reporting Station
Light Snow Light Snow  
Wind Chill:   Ceiling: 1500
Heat Index: 12°   Visibility: 4mi
Dew Point:   Wind: 9mph
Humidity: 64%   Direction: 350°N
Pressure: 30.15"   Gusts: NA
Location:  42.6548°N, 70.6236°W
Report Text: KBVY 261427Z 35008KT 4SM -SN OVC015 M11/M17 A3015 RMK AO2 SNB14 P0000 T11111167
Loading
Personal Weather Stations






























Interactive Weather Map New forecast layout! Learn more

10-Day Weather Forecast

Advertisements
Track Severe Weather on mobile